sensor_id;sensor_type;location;lat;lon;timestamp;temperature;humidity
21318;DHT22;10818;50.830;6.524;2023-03-24T00:03:53;13.40;99.90
21318;DHT22;10818;50.830;6.524;2023-03-24T00:08:53;13.40;99.90
21318;DHT22;10818;50.830;6.524;2023-03-24T00:13:54;13.60;99.90
21318;DHT22;10818;50.830;6.524;2023-03-24T00:18:57;13.60;99.90
21318;DHT22;10818;50.830;6.524;2023-03-24T00:23:58;13.70;99.90
21318;DHT22;10818;50.830;6.524;2023-03-24T00:29:00;13.80;99.90
21318;DHT22;10818;50.830;6.524;2023-03-24T00:34:01;13.90;99.90
21318;DHT22;10818;50.830;6.524;2023-03-24T00:39:02;13.90;99.90
21318;DHT22;10818;50.830;6.524;2023-03-24T00:44:03;13.90;99.90
21318;DHT22;10818;50.830;6.524;2023-03-24T00:49:06;13.90;99.90
21318;DHT22;10818;50.830;6.524;2023-03-24T00:54:07;13.90;99.90
21318;DHT22;10818;50.830;6.524;2023-03-24T00:59:09;13.80;99.90
21318;DHT22;10818;50.830;6.524;2023-03-24T01:04:10;13.90;99.90
21318;DHT22;10818;50.830;6.524;2023-03-24T01:09:10;13.90;99.90
21318;DHT22;10818;50.830;6.524;2023-03-24T01:14:11;14.00;99.90
21318;DHT22;10818;50.830;6.524;2023-03-24T01:19:12;13.90;99.90
21318;DHT22;10818;50.830;6.524;2023-03-24T01:24:13;14.00;99.90
21318;DHT22;10818;50.830;6.524;2023-03-24T01:29:14;14.00;99.90
21318;DHT22;10818;50.830;6.524;2023-03-24T01:34:14;13.90;99.90
21318;DHT22;10818;50.830;6.524;2023-03-24T01:39:15;14.00;99.90
21318;DHT22;10818;50.830;6.524;2023-03-24T01:44:30;14.10;99.90
21318;DHT22;10818;50.830;6.524;2023-03-24T01:49:50;14.20;99.90
21318;DHT22;10818;50.830;6.524;2023-03-24T01:54:53;14.20;99.90
21318;DHT22;10818;50.830;6.524;2023-03-24T01:59:55;14.10;99.90
21318;DHT22;10818;50.830;6.524;2023-03-24T02:05:01;14.20;99.90
21318;DHT22;10818;50.830;6.524;2023-03-24T02:10:04;14.20;99.90
21318;DHT22;10818;50.830;6.524;2023-03-24T02:15:05;14.20;99.90
21318;DHT22;10818;50.830;6.524;2023-03-24T02:46:35;14.30;99.90
21318;DHT22;10818;50.830;6.524;2023-03-24T02:56:53;14.30;99.90
21318;DHT22;10818;50.830;6.524;2023-03-24T03:02:18;14.40;99.90
21318;DHT22;10818;50.830;6.524;2023-03-24T03:07:18;14.40;99.90
21318;DHT22;10818;50.830;6.524;2023-03-24T03:12:21;14.30;99.90
21318;DHT22;10818;50.830;6.524;2023-03-24T03:17:26;14.30;99.90
21318;DHT22;10818;50.830;6.524;2023-03-24T03:22:31;14.30;99.90
21318;DHT22;10818;50.830;6.524;2023-03-24T03:27:33;14.40;99.90
21318;DHT22;10818;50.830;6.524;2023-03-24T03:32:39;14.50;99.90
21318;DHT22;10818;50.830;6.524;2023-03-24T03:42:53;14.50;99.90
21318;DHT22;10818;50.830;6.524;2023-03-24T03:47:54;14.50;99.90
21318;DHT22;10818;50.830;6.524;2023-03-24T03:52:54;14.50;99.90
21318;DHT22;10818;50.830;6.524;2023-03-24T03:57:56;14.50;99.90
21318;DHT22;10818;50.830;6.524;2023-03-24T04:03:14;14.40;99.90
21318;DHT22;10818;50.830;6.524;2023-03-24T04:08:18;14.50;99.90
21318;DHT22;10818;50.830;6.524;2023-03-24T04:18:27;14.50;99.90
21318;DHT22;10818;50.830;6.524;2023-03-24T04:23:34;14.40;99.90
21318;DHT22;10818;50.830;6.524;2023-03-24T04:28:49;14.30;99.90
21318;DHT22;10818;50.830;6.524;2023-03-24T04:34:03;14.20;99.90
21318;DHT22;10818;50.830;6.524;2023-03-24T04:39:13;14.00;99.90
21318;DHT22;10818;50.830;6.524;2023-03-24T04:44:16;13.30;99.90
21318;DHT22;10818;50.830;6.524;2023-03-24T04:49:20;13.00;99.90
21318;DHT22;10818;50.830;6.524;2023-03-24T04:54:24;12.90;99.90
21318;DHT22;10818;50.830;6.524;2023-03-24T04:59:25;12.70;99.90
21318;DHT22;10818;50.830;6.524;2023-03-24T05:04:26;12.60;99.90
21318;DHT22;10818;50.830;6.524;2023-03-24T05:09:27;12.40;99.90
21318;DHT22;10818;50.830;6.524;2023-03-24T05:14:30;12.40;99.90
21318;DHT22;10818;50.830;6.524;2023-03-24T05:19:31;12.10;99.90
21318;DHT22;10818;50.830;6.524;2023-03-24T05:24:31;11.90;99.90
21318;DHT22;10818;50.830;6.524;2023-03-24T05:29:32;11.90;99.90
21318;DHT22;10818;50.830;6.524;2023-03-24T05:34:32;11.90;99.90
21318;DHT22;10818;50.830;6.524;2023-03-24T05:39:33;11.80;99.90
21318;DHT22;10818;50.830;6.524;2023-03-24T05:44:33;11.70;99.90
21318;DHT22;10818;50.830;6.524;2023-03-24T05:49:34;11.70;99.90
21318;DHT22;10818;50.830;6.524;2023-03-24T05:54:36;11.60;99.90
21318;DHT22;10818;50.830;6.524;2023-03-24T05:59:38;11.40;99.90
21318;DHT22;10818;50.830;6.524;2023-03-24T06:04:39;11.40;99.90
21318;DHT22;10818;50.830;6.524;2023-03-24T06:09:45;11.30;99.90
21318;DHT22;10818;50.830;6.524;2023-03-24T06:14:51;11.40;99.90
21318;DHT22;10818;50.830;6.524;2023-03-24T06:19:52;11.30;99.90
21318;DHT22;10818;50.830;6.524;2023-03-24T06:24:52;11.30;99.90
21318;DHT22;10818;50.830;6.524;2023-03-24T06:29:56;11.10;99.90
21318;DHT22;10818;50.830;6.524;2023-03-24T06:34:56;11.10;99.90
21318;DHT22;10818;50.830;6.524;2023-03-24T06:39:57;11.10;99.90
21318;DHT22;10818;50.830;6.524;2023-03-24T06:44:57;11.30;99.90
21318;DHT22;10818;50.830;6.524;2023-03-24T06:49:58;11.40;99.90
21318;DHT22;10818;50.830;6.524;2023-03-24T06:54:58;11.50;99.90
21318;DHT22;10818;50.830;6.524;2023-03-24T06:59:59;11.50;99.90
21318;DHT22;10818;50.830;6.524;2023-03-24T07:05:00;11.60;99.90
21318;DHT22;10818;50.830;6.524;2023-03-24T07:10:05;11.60;99.90
21318;DHT22;10818;50.830;6.524;2023-03-24T07:15:06;11.60;99.90
21318;DHT22;10818;50.830;6.524;2023-03-24T07:20:07;11.70;99.90
21318;DHT22;10818;50.830;6.524;2023-03-24T07:25:08;11.80;99.90
21318;DHT22;10818;50.830;6.524;2023-03-24T07:30:08;11.90;99.90
21318;DHT22;10818;50.830;6.524;2023-03-24T07:35:10;11.90;99.90
21318;DHT22;10818;50.830;6.524;2023-03-24T07:40:11;12.10;99.90
21318;DHT22;10818;50.830;6.524;2023-03-24T07:45:12;11.90;99.90
21318;DHT22;10818;50.830;6.524;2023-03-24T07:50:13;12.00;99.90
21318;DHT22;10818;50.830;6.524;2023-03-24T07:55:13;12.00;99.90
21318;DHT22;10818;50.830;6.524;2023-03-24T08:00:15;12.20;99.90
21318;DHT22;10818;50.830;6.524;2023-03-24T08:05:17;14.00;99.90
21318;DHT22;10818;50.830;6.524;2023-03-24T08:10:19;16.70;99.90
21318;DHT22;10818;50.830;6.524;2023-03-24T08:15:20;18.10;99.90
21318;DHT22;10818;50.830;6.524;2023-03-24T08:20:21;23.10;99.90
21318;DHT22;10818;50.830;6.524;2023-03-24T08:25:24;28.20;95.80
21318;DHT22;10818;50.830;6.524;2023-03-24T08:30:25;28.30;89.90
21318;DHT22;10818;50.830;6.524;2023-03-24T08:35:28;23.90;93.30
21318;DHT22;10818;50.830;6.524;2023-03-24T08:40:29;27.10;90.90
21318;DHT22;10818;50.830;6.524;2023-03-24T08:45:31;28.60;83.00
21318;DHT22;10818;50.830;6.524;2023-03-24T08:50:32;29.20;77.90
21318;DHT22;10818;50.830;6.524;2023-03-24T08:55:34;25.00;87.10
21318;DHT22;10818;50.830;6.524;2023-03-24T09:00:36;23.70;90.50
21318;DHT22;10818;50.830;6.524;2023-03-24T09:05:37;20.80;95.10
21318;DHT22;10818;50.830;6.524;2023-03-24T09:10:38;19.60;98.10
21318;DHT22;10818;50.830;6.524;2023-03-24T09:15:38;19.10;99.30
21318;DHT22;10818;50.830;6.524;2023-03-24T09:20:39;18.40;99.90
21318;DHT22;10818;50.830;6.524;2023-03-24T09:25:40;17.80;99.90
21318;DHT22;10818;50.830;6.524;2023-03-24T09:30:40;17.80;99.90
21318;DHT22;10818;50.830;6.524;2023-03-24T09:35:41;17.20;99.90
21318;DHT22;10818;50.830;6.524;2023-03-24T09:40:42;17.30;99.90
21318;DHT22;10818;50.830;6.524;2023-03-24T09:45:49;17.20;99.90
21318;DHT22;10818;50.830;6.524;2023-03-24T09:50:58;17.60;99.90
21318;DHT22;10818;50.830;6.524;2023-03-24T09:56:02;17.50;99.90
21318;DHT22;10818;50.830;6.524;2023-03-24T10:01:03;17.00;99.90
21318;DHT22;10818;50.830;6.524;2023-03-24T10:06:05;16.70;99.90
21318;DHT22;10818;50.830;6.524;2023-03-24T10:16:42;17.70;99.90
21318;DHT22;10818;50.830;6.524;2023-03-24T10:21:35;18.00;99.90
21318;DHT22;10818;50.830;6.524;2023-03-24T10:26:48;17.80;99.90
21318;DHT22;10818;50.830;6.524;2023-03-24T10:37:10;17.50;99.90
21318;DHT22;10818;50.830;6.524;2023-03-24T10:42:16;16.80;99.90
21318;DHT22;10818;50.830;6.524;2023-03-24T10:47:18;16.60;99.90
21318;DHT22;10818;50.830;6.524;2023-03-24T10:52:21;17.10;99.90
21318;DHT22;10818;50.830;6.524;2023-03-24T10:57:24;17.50;99.90
21318;DHT22;10818;50.830;6.524;2023-03-24T11:02:26;17.30;99.90
21318;DHT22;10818;50.830;6.524;2023-03-24T11:07:33;17.40;99.90
21318;DHT22;10818;50.830;6.524;2023-03-24T11:12:35;17.40;99.90
21318;DHT22;10818;50.830;6.524;2023-03-24T11:17:37;17.50;99.90
21318;DHT22;10818;50.830;6.524;2023-03-24T11:22:37;17.10;99.90
21318;DHT22;10818;50.830;6.524;2023-03-24T11:27:41;17.30;99.90
21318;DHT22;10818;50.830;6.524;2023-03-24T11:32:44;17.30;99.90
21318;DHT22;10818;50.830;6.524;2023-03-24T11:37:46;17.90;99.90
21318;DHT22;10818;50.830;6.524;2023-03-24T11:42:47;17.50;99.90
21318;DHT22;10818;50.830;6.524;2023-03-24T11:47:48;17.40;99.90
21318;DHT22;10818;50.830;6.524;2023-03-24T11:52:51;17.30;99.90
21318;DHT22;10818;50.830;6.524;2023-03-24T11:57:55;17.20;99.90
21318;DHT22;10818;50.830;6.524;2023-03-24T12:08:38;17.20;99.90
21318;DHT22;10818;50.830;6.524;2023-03-24T12:13:37;17.20;99.90
21318;DHT22;10818;50.830;6.524;2023-03-24T12:23:59;17.40;99.90
21318;DHT22;10818;50.830;6.524;2023-03-24T12:39:27;17.90;99.90
21318;DHT22;10818;50.830;6.524;2023-03-24T12:49:35;17.40;99.90
21318;DHT22;10818;50.830;6.524;2023-03-24T12:59:46;17.60;99.90
21318;DHT22;10818;50.830;6.524;2023-03-24T13:04:48;18.00;99.90
21318;DHT22;10818;50.830;6.524;2023-03-24T13:14:56;18.60;99.90
21318;DHT22;10818;50.830;6.524;2023-03-24T13:19:59;18.40;99.90
21318;DHT22;10818;50.830;6.524;2023-03-24T13:25:01;17.90;99.90
21318;DHT22;10818;50.830;6.524;2023-03-24T13:30:05;18.50;99.90
21318;DHT22;10818;50.830;6.524;2023-03-24T13:35:21;18.30;99.90
21318;DHT22;10818;50.830;6.524;2023-03-24T13:40:26;18.40;99.60
21318;DHT22;10818;50.830;6.524;2023-03-24T13:50:52;17.20;99.90
21318;DHT22;10818;50.830;6.524;2023-03-24T13:55:52;17.50;99.90
21318;DHT22;10818;50.830;6.524;2023-03-24T14:01:03;18.20;99.90
21318;DHT22;10818;50.830;6.524;2023-03-24T14:06:05;18.40;99.90
21318;DHT22;10818;50.830;6.524;2023-03-24T14:11:39;17.20;99.90
21318;DHT22;10818;50.830;6.524;2023-03-24T14:16:35;16.90;99.90
21318;DHT22;10818;50.830;6.524;2023-03-24T14:21:36;16.90;99.90
21318;DHT22;10818;50.830;6.524;2023-03-24T14:26:40;16.80;99.90
21318;DHT22;10818;50.830;6.524;2023-03-24T14:31:41;16.90;99.90
21318;DHT22;10818;50.830;6.524;2023-03-24T14:36:44;16.90;99.90
21318;DHT22;10818;50.830;6.524;2023-03-24T14:41:45;16.10;99.90
21318;DHT22;10818;50.830;6.524;2023-03-24T14:46:50;16.00;99.90
21318;DHT22;10818;50.830;6.524;2023-03-24T14:57:17;16.00;99.90
21318;DHT22;10818;50.830;6.524;2023-03-24T15:02:25;16.30;99.90
21318;DHT22;10818;50.830;6.524;2023-03-24T15:07:26;16.30;99.90
21318;DHT22;10818;50.830;6.524;2023-03-24T15:12:27;16.30;99.90
21318;DHT22;10818;50.830;6.524;2023-03-24T15:17:27;16.60;99.90
21318;DHT22;10818;50.830;6.524;2023-03-24T15:22:28;17.00;99.90
21318;DHT22;10818;50.830;6.524;2023-03-24T15:27:39;17.10;99.90
21318;DHT22;10818;50.830;6.524;2023-03-24T15:32:39;17.50;99.90
21318;DHT22;10818;50.830;6.524;2023-03-24T15:37:52;17.40;99.90
21318;DHT22;10818;50.830;6.524;2023-03-24T15:42:54;17.10;99.90
21318;DHT22;10818;50.830;6.524;2023-03-24T15:47:55;16.70;99.90
21318;DHT22;10818;50.830;6.524;2023-03-24T15:53:04;16.30;99.90
21318;DHT22;10818;50.830;6.524;2023-03-24T15:58:19;16.50;99.90
21318;DHT22;10818;50.830;6.524;2023-03-24T16:03:21;16.40;99.90
21318;DHT22;10818;50.830;6.524;2023-03-24T16:08:26;16.00;99.90
21318;DHT22;10818;50.830;6.524;2023-03-24T16:13:27;15.60;99.90
21318;DHT22;10818;50.830;6.524;2023-03-24T16:18:32;15.20;99.90
21318;DHT22;10818;50.830;6.524;2023-03-24T16:23:32;15.00;99.90
21318;DHT22;10818;50.830;6.524;2023-03-24T16:28:33;13.90;99.90
21318;DHT22;10818;50.830;6.524;2023-03-24T16:33:33;13.40;99.90
21318;DHT22;10818;50.830;6.524;2023-03-24T16:38:34;13.20;99.90
21318;DHT22;10818;50.830;6.524;2023-03-24T16:43:35;12.70;99.90
21318;DHT22;10818;50.830;6.524;2023-03-24T16:48:36;13.00;99.90
21318;DHT22;10818;50.830;6.524;2023-03-24T16:53:36;13.10;99.90
21318;DHT22;10818;50.830;6.524;2023-03-24T16:58:37;12.80;99.90
21318;DHT22;10818;50.830;6.524;2023-03-24T17:03:37;12.60;99.90
21318;DHT22;10818;50.830;6.524;2023-03-24T17:08:39;12.30;99.90
21318;DHT22;10818;50.830;6.524;2023-03-24T17:13:39;12.10;99.90
21318;DHT22;10818;50.830;6.524;2023-03-24T17:18:40;11.90;99.90
21318;DHT22;10818;50.830;6.524;2023-03-24T17:23:41;11.70;99.90
21318;DHT22;10818;50.830;6.524;2023-03-24T17:28:42;11.60;99.90
21318;DHT22;10818;50.830;6.524;2023-03-24T17:33:43;11.40;99.90
21318;DHT22;10818;50.830;6.524;2023-03-24T17:38:43;11.30;99.90
21318;DHT22;10818;50.830;6.524;2023-03-24T17:43:46;11.30;99.90
21318;DHT22;10818;50.830;6.524;2023-03-24T17:48:46;11.20;99.90
21318;DHT22;10818;50.830;6.524;2023-03-24T17:53:47;11.20;99.90
21318;DHT22;10818;50.830;6.524;2023-03-24T17:58:47;10.90;99.90
21318;DHT22;10818;50.830;6.524;2023-03-24T18:03:48;10.80;99.90
21318;DHT22;10818;50.830;6.524;2023-03-24T18:08:51;10.60;99.90
21318;DHT22;10818;50.830;6.524;2023-03-24T18:13:52;10.60;99.90
21318;DHT22;10818;50.830;6.524;2023-03-24T18:18:53;10.70;99.90
21318;DHT22;10818;50.830;6.524;2023-03-24T18:23:53;10.70;99.90
21318;DHT22;10818;50.830;6.524;2023-03-24T18:28:53;10.80;99.90
21318;DHT22;10818;50.830;6.524;2023-03-24T18:33:54;10.80;99.90
21318;DHT22;10818;50.830;6.524;2023-03-24T18:43:57;10.90;99.90
21318;DHT22;10818;50.830;6.524;2023-03-24T18:48:57;11.00;99.90
21318;DHT22;10818;50.830;6.524;2023-03-24T18:53:58;11.00;99.90
21318;DHT22;10818;50.830;6.524;2023-03-24T18:58:59;11.00;99.90
21318;DHT22;10818;50.830;6.524;2023-03-24T19:03:59;11.00;99.90
21318;DHT22;10818;50.830;6.524;2023-03-24T19:09:00;10.90;99.90
21318;DHT22;10818;50.830;6.524;2023-03-24T19:14:00;11.00;99.90
21318;DHT22;10818;50.830;6.524;2023-03-24T19:19:01;11.10;99.90
21318;DHT22;10818;50.830;6.524;2023-03-24T19:24:01;11.20;99.90
21318;DHT22;10818;50.830;6.524;2023-03-24T19:29:02;11.30;99.90
21318;DHT22;10818;50.830;6.524;2023-03-24T19:34:02;11.30;99.90
21318;DHT22;10818;50.830;6.524;2023-03-24T19:39:03;11.40;99.90
21318;DHT22;10818;50.830;6.524;2023-03-24T19:44:03;11.30;99.90
21318;DHT22;10818;50.830;6.524;2023-03-24T19:49:04;11.40;99.90
21318;DHT22;10818;50.830;6.524;2023-03-24T19:54:05;11.40;99.90
21318;DHT22;10818;50.830;6.524;2023-03-24T19:59:06;11.30;99.90
21318;DHT22;10818;50.830;6.524;2023-03-24T20:04:06;11.30;99.90
21318;DHT22;10818;50.830;6.524;2023-03-24T20:09:06;11.10;99.90
21318;DHT22;10818;50.830;6.524;2023-03-24T20:14:07;11.00;99.90
21318;DHT22;10818;50.830;6.524;2023-03-24T20:19:07;10.90;99.90
21318;DHT22;10818;50.830;6.524;2023-03-24T20:24:08;10.60;99.90
21318;DHT22;10818;50.830;6.524;2023-03-24T20:29:09;10.50;99.90
21318;DHT22;10818;50.830;6.524;2023-03-24T20:34:09;10.50;99.90
21318;DHT22;10818;50.830;6.524;2023-03-24T20:39:10;10.50;99.90
21318;DHT22;10818;50.830;6.524;2023-03-24T20:44:11;10.50;99.90
21318;DHT22;10818;50.830;6.524;2023-03-24T20:49:11;10.60;99.90
21318;DHT22;10818;50.830;6.524;2023-03-24T20:54:15;10.60;99.90
21318;DHT22;10818;50.830;6.524;2023-03-24T20:59:17;10.60;99.90
21318;DHT22;10818;50.830;6.524;2023-03-24T21:04:18;10.40;99.90
21318;DHT22;10818;50.830;6.524;2023-03-24T21:09:19;10.30;99.90
21318;DHT22;10818;50.830;6.524;2023-03-24T21:14:21;10.30;99.90
21318;DHT22;10818;50.830;6.524;2023-03-24T21:19:22;10.30;99.90
21318;DHT22;10818;50.830;6.524;2023-03-24T21:24:23;10.10;99.90
21318;DHT22;10818;50.830;6.524;2023-03-24T21:29:23;10.10;99.90
21318;DHT22;10818;50.830;6.524;2023-03-24T21:34:25;10.20;99.90
21318;DHT22;10818;50.830;6.524;2023-03-24T21:39:26;10.20;99.90
21318;DHT22;10818;50.830;6.524;2023-03-24T21:44:26;10.40;99.90
21318;DHT22;10818;50.830;6.524;2023-03-24T21:49:27;10.50;99.90
21318;DHT22;10818;50.830;6.524;2023-03-24T21:54:27;10.50;99.90
21318;DHT22;10818;50.830;6.524;2023-03-24T21:59:29;10.60;99.90
21318;DHT22;10818;50.830;6.524;2023-03-24T22:04:31;10.60;99.90
21318;DHT22;10818;50.830;6.524;2023-03-24T22:09:37;10.60;99.90
21318;DHT22;10818;50.830;6.524;2023-03-24T22:14:37;10.70;99.90
21318;DHT22;10818;50.830;6.524;2023-03-24T22:19:38;10.70;99.90
21318;DHT22;10818;50.830;6.524;2023-03-24T22:24:38;10.60;99.90
21318;DHT22;10818;50.830;6.524;2023-03-24T22:29:39;10.70;99.90
21318;DHT22;10818;50.830;6.524;2023-03-24T22:34:39;10.70;99.90
21318;DHT22;10818;50.830;6.524;2023-03-24T22:39:40;10.70;99.90
21318;DHT22;10818;50.830;6.524;2023-03-24T22:44:41;10.80;99.90
21318;DHT22;10818;50.830;6.524;2023-03-24T22:49:41;10.60;99.90
21318;DHT22;10818;50.830;6.524;2023-03-24T22:54:42;10.60;99.90
21318;DHT22;10818;50.830;6.524;2023-03-24T22:59:42;10.50;99.90
21318;DHT22;10818;50.830;6.524;2023-03-24T23:04:42;10.40;99.90
21318;DHT22;10818;50.830;6.524;2023-03-24T23:09:44;10.30;99.90
21318;DHT22;10818;50.830;6.524;2023-03-24T23:14:44;10.10;99.90
21318;DHT22;10818;50.830;6.524;2023-03-24T23:19:45;10.00;99.90
21318;DHT22;10818;50.830;6.524;2023-03-24T23:24:45;9.90;99.90
21318;DHT22;10818;50.830;6.524;2023-03-24T23:29:47;9.80;99.90
21318;DHT22;10818;50.830;6.524;2023-03-24T23:34:47;9.80;99.90
21318;DHT22;10818;50.830;6.524;2023-03-24T23:39:49;9.80;99.90
21318;DHT22;10818;50.830;6.524;2023-03-24T23:44:51;9.60;99.90
21318;DHT22;10818;50.830;6.524;2023-03-24T23:49:52;9.70;99.90
21318;DHT22;10818;50.830;6.524;2023-03-24T23:54:52;9.80;99.90
21318;DHT22;10818;50.830;6.524;2023-03-24T23:59:53;9.80;99.90
